Map

Track Data

SID SEASON NUMBER BASIN SUBBASIN NAME ISO_TIME NATURE LAT LON WMO_WIND WMO_PRES WMO_AGENCY TRACK_TYPE DIST2LAND LANDFALL IFLAG USA_AGENCY USA_ATCF_ID USA_LAT USA_LON USA_RECORD USA_STATUS USA_WIND USA_PRES USA_SSHS USA_R34_NE USA_R34_SE USA_R34_SW USA_R34_NW USA_R50_NE USA_R50_SE USA_R50_SW USA_R50_NW USA_R64_NE USA_R64_SE USA_R64_SW USA_R64_NW USA_POCI USA_ROCI USA_RMW USA_EYE TOKYO_LAT TOKYO_LON TOKYO_GRADE TOKYO_WIND TOKYO_PRES TOKYO_R50_DIR TOKYO_R50_LONG TOKYO_R50_SHORT TOKYO_R30_DIR TOKYO_R30_LONG TOKYO_R30_SHORT TOKYO_LAND CMA_LAT CMA_LON CMA_CAT CMA_WIND CMA_PRES HKO_LAT HKO_LON HKO_CAT HKO_WIND HKO_PRES NEWDELHI_LAT NEWDELHI_LON NEWDELHI_GRADE NEWDELHI_WIND NEWDELHI_PRES NEWDELHI_CI NEWDELHI_DP NEWDELHI_POCI REUNION_LAT REUNION_LON REUNION_TYPE REUNION_WIND REUNION_PRES REUNION_TNUM REUNION_CI REUNION_RMW REUNION_R34_NE REUNION_R34_SE REUNION_R34_SW REUNION_R34_NW REUNION_R50_NE REUNION_R50_SE REUNION_R50_SW REUNION_R50_NW REUNION_R64_NE REUNION_R64_SE REUNION_R64_SW REUNION_R64_NW BOM_LAT BOM_LON BOM_TYPE BOM_WIND BOM_PRES BOM_TNUM BOM_CI BOM_RMW BOM_R34_NE BOM_R34_SE BOM_R34_SW BOM_R34_NW BOM_R50_NE BOM_R50_SE BOM_R50_SW BOM_R50_NW BOM_R64_NE BOM_R64_SE BOM_R64_SW BOM_R64_NW BOM_ROCI BOM_POCI BOM_EYE BOM_POS_METHOD BOM_PRES_METHOD NADI_LAT NADI_LON NADI_CAT NADI_WIND NADI_PRES WELLINGTON_LAT WELLINGTON_LON WELLINGTON_WIND WELLINGTON_PRES DS824_LAT DS824_LON DS824_STAGE DS824_WIND DS824_PRES TD9636_LAT TD9636_LON TD9636_STAGE TD9636_WIND TD9636_PRES TD9635_LAT TD9635_LON TD9635_WIND TD9635_PRES TD9635_ROCI NEUMANN_LAT NEUMANN_LON NEUMANN_CLASS NEUMANN_WIND NEUMANN_PRES MLC_LAT MLC_LON MLC_CLASS MLC_WIND MLC_PRES USA_GUST BOM_GUST BOM_GUST_PER REUNION_GUST REUNION_GUST_PER USA_SEAHGT USA_SEARAD_NE USA_SEARAD_SE USA_SEARAD_SW USA_SEARAD_NW STORM_SPEED STORM_DIR
1900254N20275 1900 26 NA CS NOT_NAMED 1900-09-11 00:00:00 TS 20.0000 -85.2000 35 hurdat_atl main 198 147 O_____________ hurdat_atl AL041900 20.0000 -85.2000 TS 35 0 11 322
1900254N20275 1900 26 NA CS NOT_NAMED 1900-09-11 03:00:00 TS 20.4525 -85.5698 main 132 76 P_____________ AL041900 20.4525 -85.5698 TS 37 0 12 320
1900254N20275 1900 26 NA CS NOT_NAMED 1900-09-11 06:00:00 TS 20.9000 -86.0000 40 hurdat_atl main 76 30 O_____________ hurdat_atl AL041900 20.9000 -86.0000 TS 40 0 13 315
1900254N20275 1900 26 NA CS NOT_NAMED 1900-09-11 09:00:00 TS 21.3427 -86.5149 main 30 15 P_____________ AL041900 21.3427 -86.5149 TS 40 0 13 314
1900254N20275 1900 26 NA GM NOT_NAMED 1900-09-11 12:00:00 TS 21.8000 -87.0000 40 hurdat_atl main 33 33 O_____________ hurdat_atl AL041900 21.8000 -87.0000 TS 40 0 12 321
1900254N20275 1900 26 NA GM NOT_NAMED 1900-09-11 15:00:00 TS 22.2922 -87.3305 main 91 91 P_____________ AL041900 22.2922 -87.3305 TS 42 0 11 331
1900254N20275 1900 26 NA GM NOT_NAMED 1900-09-11 18:00:00 TS 22.8000 -87.6000 45 hurdat_atl main 145 145 O_____________ hurdat_atl AL041900 22.8000 -87.6000 TS 45 0 11 332
1900254N20275 1900 26 NA GM NOT_NAMED 1900-09-11 21:00:00 TS 23.3000 -87.9076 main 201 201 P_____________ AL041900 23.3000 -87.9076 TS 45 0 11 331
1900254N20275 1900 26 NA GM NOT_NAMED 1900-09-12 00:00:00 TS 23.8000 -88.2000 45 hurdat_atl main 257 257 O_____________ hurdat_atl AL041900 23.8000 -88.2000 TS 45 0 11 333
1900254N20275 1900 26 NA GM NOT_NAMED 1900-09-12 03:00:00 TS 24.2849 -88.4505 main 312 312 P_____________ AL041900 24.2849 -88.4505 TS 45 0 11 335
1900254N20275 1900 26 NA GM NOT_NAMED 1900-09-12 06:00:00 TS 24.8000 -88.7000 45 hurdat_atl main 369 369 O_____________ hurdat_atl AL041900 24.8000 -88.7000 TS 45 0 12 336
1900254N20275 1900 26 NA GM NOT_NAMED 1900-09-12 09:00:00 TS 25.4001 -89.0073 main 402 335 P_____________ AL041900 25.4001 -89.0073 TS 45 0 13 336
1900254N20275 1900 26 NA GM NOT_NAMED 1900-09-12 12:00:00 TS 26.0000 -89.3000 45 hurdat_atl main 335 281 O_____________ hurdat_atl AL041900 26.0000 -89.3000 TS 45 0 12 337
1900254N20275 1900 26 NA GM NOT_NAMED 1900-09-12 15:00:00 TS 26.5075 -89.5377 main 281 230 P_____________ AL041900 26.5075 -89.5377 TS 45 0 11 340
1900254N20275 1900 26 NA GM NOT_NAMED 1900-09-12 18:00:00 TS 27.0000 -89.7000 45 hurdat_atl main 230 180 O_____________ hurdat_atl AL041900 27.0000 -89.7000 TS 45 0 11 347
1900254N20275 1900 26 NA GM NOT_NAMED 1900-09-12 21:00:00 TS 27.5499 -89.8024 main 180 115 P_____________ AL041900 27.5499 -89.8024 TS 45 0 11 355
1900254N20275 1900 26 NA GM NOT_NAMED 1900-09-13 00:00:00 TS 28.1000 -89.8000 45 hurdat_atl main 115 62 O_____________ hurdat_atl AL041900 28.1000 -89.8000 TS 45 0 11 5
1900254N20275 1900 26 NA GM NOT_NAMED 1900-09-13 03:00:00 TS 28.6150 -89.6951 main 62 9 P_____________ AL041900 28.6150 -89.6951 TS 42 0 10 15
1900254N20275 1900 26 NA GM NOT_NAMED 1900-09-13 06:00:00 TS 29.1000 -89.5000 40 hurdat_atl main 9 0 O_____________ hurdat_atl AL041900 29.1000 -89.5000 L TS 40 0 11 22
1900254N20275 1900 26 NA GM NOT_NAMED 1900-09-13 09:00:00 TS 29.5876 -89.2536 main 14 9 P_____________ AL041900 29.5876 -89.2536 TS 37 0 10 26
1900254N20275 1900 26 NA GM NOT_NAMED 1900-09-13 12:00:00 TS 30.0000 -89.0000 35 hurdat_atl main 30 9 O_____________ hurdat_atl AL041900 30.0000 -89.0000 TS 35 0 8 29
1900254N20275 1900 26 NA GM NOT_NAMED 1900-09-13 15:00:00 TS 30.3000 -88.8000 35 hurdat_atl main 9 0 O_____________ hurdat_atl AL041900 30.3000 -88.8000 L TS 35 0 6 35
1900254N20275 1900 26 NA NA NOT_NAMED 1900-09-13 18:00:00 TS 30.5000 -88.6000 35 hurdat_atl main 0 0 O_____________ hurdat_atl AL041900 30.5000 -88.6000 TS 35 0 5 34
1900254N20275 1900 26 NA NA NOT_NAMED 1900-09-13 21:00:00 TS 30.7397 -88.4532 main 0 0 P_____________ AL041900 30.7397 -88.4532 TS 32 -1 6 27
1900254N20275 1900 26 NA NA NOT_NAMED 1900-09-14 00:00:00 TS 31.0000 -88.3000 30 hurdat_atl main 0 0 O_____________ hurdat_atl AL041900 31.0000 -88.3000 TD 30 -1 6 33
1900254N20275 1900 26 NA NA NOT_NAMED 1900-09-14 03:00:00 TS 31.2501 -88.0575 main 0 0 P_____________ AL041900 31.2501 -88.0575 TD 30 -1 7 41
1900254N20275 1900 26 NA NA NOT_NAMED 1900-09-14 06:00:00 TS 31.5000 -87.8000 30 hurdat_atl main 0 0 O_____________ hurdat_atl AL041900 31.5000 -87.8000 TD 30 -1 6 37
1900254N20275 1900 26 NA NA NOT_NAMED 1900-09-14 09:00:00 TS 31.7574 -87.5998 main 0 0 P_____________ AL041900 31.7574 -87.5998 TD 30 -1 6 34
1900254N20275 1900 26 NA NA NOT_NAMED 1900-09-14 12:00:00 TS 32.0000 -87.4000 30 hurdat_atl main 0 0 O_____________ hurdat_atl AL041900 32.0000 -87.4000 TD 30 -1 6 39
1900254N20275 1900 26 NA NA NOT_NAMED 1900-09-14 15:00:00 TS 32.2074 -87.1648 main 0 0 P_____________ AL041900 32.2074 -87.1648 TD 30 -1 6 47
1900254N20275 1900 26 NA NA NOT_NAMED 1900-09-14 18:00:00 TS 32.4000 -86.9000 30 hurdat_atl main 0 0 O_____________ hurdat_atl AL041900 32.4000 -86.9000 TD 30 -1 6 50
1900254N20275 1900 26 NA NA NOT_NAMED 1900-09-14 21:00:00 TS 32.5924 -86.6222 main 0 0 P_____________ AL041900 32.5924 -86.6222 TD 27 -1 6 52
1900254N20275 1900 26 NA NA NOT_NAMED 1900-09-15 00:00:00 TS 32.8000 -86.3000 25 hurdat_atl main 0 0 O_____________ hurdat_atl AL041900 32.8000 -86.3000 TD 25 -1 8 52
1900254N20275 1900 26 NA NA NOT_NAMED 1900-09-15 03:00:00 TS 33.0500 -85.9151 main 0 0 P_____________ AL041900 33.0500 -85.9151 TD 25 -1 8 53
1900254N20275 1900 26 NA NA NOT_NAMED 1900-09-15 06:00:00 TS 33.3000 -85.5000 25 hurdat_atl main 0 0 O_____________ hurdat_atl AL041900 33.3000 -85.5000 TD 25 -1 8 54
1900254N20275 1900 26 NA NA NOT_NAMED 1900-09-15 09:00:00 TS 33.5143 -85.1445 main 0 0 P_____________ AL041900 33.5143 -85.1445 TD 25 -1 8 59
1900254N20275 1900 26 NA NA NOT_NAMED 1900-09-15 12:00:00 TS 33.7000 -84.7000 25 hurdat_atl main 0 0 O_____________ hurdat_atl AL041900 33.7000 -84.7000 TD 25 -1 10 69
1900254N20275 1900 26 NA NA NOT_NAMED 1900-09-15 15:00:00 TS 33.8589 -84.0607 main 0 0 P_____________ AL041900 33.8589 -84.0607 TD 25 -1 12 76
1900254N20275 1900 26 NA NA NOT_NAMED 1900-09-15 18:00:00 TS 34.0000 -83.3000 25 hurdat_atl main 0 O_____________ hurdat_atl AL041900 34.0000 -83.3000 TD 25 -1 13 77

About IBTrACS Database

This database is a web-friendly format of International Best Track Archive for Climate Stewardship (IBTrACS), a global best track data archive curated by NOAA dating back to 1842.

Updated: 2021-10-27